sensor_id;sensor_type;location;lat;lon;timestamp;pressure;altitude;pressure_sealevel;temperature;humidity
8585;BME280;7180;52.742;11.420;2023-02-04T00:00:12;101637.50;;;3.28;100.00
8585;BME280;7180;52.742;11.420;2023-02-04T00:02:39;101654.00;;;3.27;100.00
8585;BME280;7180;52.742;11.420;2023-02-04T00:05:05;101697.16;;;3.41;100.00
8585;BME280;7180;52.742;11.420;2023-02-04T00:07:30;101682.38;;;3.42;100.00
8585;BME280;7180;52.742;11.420;2023-02-04T00:09:55;101688.44;;;3.44;100.00
8585;BME280;7180;52.742;11.420;2023-02-04T00:12:23;101684.13;;;3.43;100.00
8585;BME280;7180;52.742;11.420;2023-02-04T00:14:49;101686.66;;;3.47;100.00
8585;BME280;7180;52.742;11.420;2023-02-04T00:17:14;101690.16;;;3.43;100.00
8585;BME280;7180;52.742;11.420;2023-02-04T00:19:40;101699.75;;;3.40;100.00
8585;BME280;7180;52.742;11.420;2023-02-04T00:22:05;101713.59;;;3.42;100.00
8585;BME280;7180;52.742;11.420;2023-02-04T00:24:32;101738.75;;;3.41;100.00
8585;BME280;7180;52.742;11.420;2023-02-04T00:26:58;101742.16;;;3.45;100.00
8585;BME280;7180;52.742;11.420;2023-02-04T00:29:23;101766.34;;;3.51;100.00
8585;BME280;7180;52.742;11.420;2023-02-04T00:31:48;101752.50;;;3.49;100.00
8585;BME280;7180;52.742;11.420;2023-02-04T00:34:13;101762.03;;;3.49;100.00
8585;BME280;7180;52.742;11.420;2023-02-04T00:36:39;101756.13;;;3.35;100.00
8585;BME280;7180;52.742;11.420;2023-02-04T00:39:04;101770.03;;;3.32;100.00
8585;BME280;7180;52.742;11.420;2023-02-04T00:41:29;101802.91;;;3.36;100.00
8585;BME280;7180;52.742;11.420;2023-02-04T00:43:54;101821.00;;;3.45;100.00
8585;BME280;7180;52.742;11.420;2023-02-04T00:46:20;101840.09;;;3.46;100.00
8585;BME280;7180;52.742;11.420;2023-02-04T00:48:45;101848.78;;;3.45;100.00
8585;BME280;7180;52.742;11.420;2023-02-04T00:51:10;101870.38;;;3.50;100.00
8585;BME280;7180;52.742;11.420;2023-02-04T00:53:36;101881.66;;;3.49;100.00
8585;BME280;7180;52.742;11.420;2023-02-04T00:56:01;101888.59;;;3.50;100.00
8585;BME280;7180;52.742;11.420;2023-02-04T00:58:26;101897.16;;;3.58;100.00
8585;BME280;7180;52.742;11.420;2023-02-04T01:00:51;101867.91;;;3.35;100.00
8585;BME280;7180;52.742;11.420;2023-02-04T01:03:17;101867.16;;;3.21;100.00
8585;BME280;7180;52.742;11.420;2023-02-04T01:05:43;101907.03;;;3.21;100.00
8585;BME280;7180;52.742;11.420;2023-02-04T01:08:08;101914.03;;;3.11;100.00
8585;BME280;7180;52.742;11.420;2023-02-04T01:10:33;101932.31;;;2.99;100.00
8585;BME280;7180;52.742;11.420;2023-02-04T01:12:59;101984.19;;;3.11;100.00
8585;BME280;7180;52.742;11.420;2023-02-04T01:15:24;101973.00;;;3.00;100.00
8585;BME280;7180;52.742;11.420;2023-02-04T01:17:50;101992.13;;;2.90;100.00
8585;BME280;7180;52.742;11.420;2023-02-04T01:20:15;102011.16;;;2.89;100.00
8585;BME280;7180;52.742;11.420;2023-02-04T01:22:41;102034.56;;;2.83;100.00
8585;BME280;7180;52.742;11.420;2023-02-04T01:25:06;102039.75;;;2.82;100.00
8585;BME280;7180;52.742;11.420;2023-02-04T01:27:31;102047.59;;;2.74;100.00
8585;BME280;7180;52.742;11.420;2023-02-04T01:29:57;102065.75;;;2.77;100.00
8585;BME280;7180;52.742;11.420;2023-02-04T01:32:22;102061.44;;;2.73;100.00
8585;BME280;7180;52.742;11.420;2023-02-04T01:34:47;102077.03;;;2.73;100.00
8585;BME280;7180;52.742;11.420;2023-02-04T01:37:12;102081.38;;;2.67;100.00
8585;BME280;7180;52.742;11.420;2023-02-04T01:39:38;102103.00;;;2.70;100.00
8585;BME280;7180;52.742;11.420;2023-02-04T01:42:03;102138.47;;;2.86;100.00
8585;BME280;7180;52.742;11.420;2023-02-04T01:44:29;102147.09;;;2.97;100.00
8585;BME280;7180;52.742;11.420;2023-02-04T01:46:55;102125.47;;;2.95;100.00
8585;BME280;7180;52.742;11.420;2023-02-04T01:49:20;102098.59;;;2.99;100.00
8585;BME280;7180;52.742;11.420;2023-02-04T01:51:46;102068.31;;;2.86;100.00
8585;BME280;7180;52.742;11.420;2023-02-04T01:54:12;102045.00;;;2.68;100.00
8585;BME280;7180;52.742;11.420;2023-02-04T01:56:40;102043.28;;;2.58;100.00
8585;BME280;7180;52.742;11.420;2023-02-04T01:59:12;102052.00;;;2.42;100.00
8585;BME280;7180;52.742;11.420;2023-02-04T02:01:46;102062.41;;;2.30;100.00
8585;BME280;7180;52.742;11.420;2023-02-04T02:04:16;102089.22;;;2.17;100.00
8585;BME280;7180;52.742;11.420;2023-02-04T02:06:52;102143.72;;;2.26;100.00
8585;BME280;7180;52.742;11.420;2023-02-04T02:09:19;102190.47;;;2.40;100.00
8585;BME280;7180;52.742;11.420;2023-02-04T02:11:45;102193.91;;;2.25;100.00
8585;BME280;7180;52.742;11.420;2023-02-04T02:14:10;102227.66;;;2.33;100.00
8585;BME280;7180;52.742;11.420;2023-02-04T02:16:36;102243.19;;;2.22;100.00
8585;BME280;7180;52.742;11.420;2023-02-04T02:19:03;102261.38;;;2.28;100.00
8585;BME280;7180;52.742;11.420;2023-02-04T02:21:35;102287.34;;;2.31;100.00
8585;BME280;7180;52.742;11.420;2023-02-04T02:24:23;102279.50;;;2.10;100.00
8585;BME280;7180;52.742;11.420;2023-02-04T02:26:49;102302.88;;;2.10;100.00
8585;BME280;7180;52.742;11.420;2023-02-04T02:29:14;102284.59;;;1.83;100.00
8585;BME280;7180;52.742;11.420;2023-02-04T02:31:39;102294.06;;;1.72;100.00
8585;BME280;7180;52.742;11.420;2023-02-04T02:34:04;102317.41;;;1.72;100.00
8585;BME280;7180;52.742;11.420;2023-02-04T02:36:30;102333.78;;;1.63;100.00
8585;BME280;7180;52.742;11.420;2023-02-04T02:38:55;102332.78;;;1.42;100.00
8585;BME280;7180;52.742;11.420;2023-02-04T02:41:20;102352.66;;;1.40;100.00
8585;BME280;7180;52.742;11.420;2023-02-04T02:43:46;102363.81;;;1.28;100.00
8585;BME280;7180;52.742;11.420;2023-02-04T02:46:11;102364.56;;;1.18;100.00
8585;BME280;7180;52.742;11.420;2023-02-04T02:48:36;102386.09;;;1.08;100.00
8585;BME280;7180;52.742;11.420;2023-02-04T02:51:01;102393.78;;;1.00;100.00
8585;BME280;7180;52.742;11.420;2023-02-04T02:53:27;102403.25;;;0.95;100.00
8585;BME280;7180;52.742;11.420;2023-02-04T02:55:52;102406.66;;;0.88;100.00
8585;BME280;7180;52.742;11.420;2023-02-04T02:58:28;102434.38;;;1.01;100.00
8585;BME280;7180;52.742;11.420;2023-02-04T03:00:56;102449.16;;;1.12;100.00
8585;BME280;7180;52.742;11.420;2023-02-04T03:03:27;102464.72;;;1.15;100.00
8585;BME280;7180;52.742;11.420;2023-02-04T03:05:56;102478.59;;;1.18;100.00
8585;BME280;7180;52.742;11.420;2023-02-04T03:08:23;102491.63;;;1.24;100.00
8585;BME280;7180;52.742;11.420;2023-02-04T03:10:49;102482.84;;;1.12;100.00
8585;BME280;7180;52.742;11.420;2023-02-04T03:13:15;102494.94;;;1.16;100.00
8585;BME280;7180;52.742;11.420;2023-02-04T03:15:42;102494.91;;;1.08;100.00
8585;BME280;7180;52.742;11.420;2023-02-04T03:18:08;102518.34;;;1.20;100.00
8585;BME280;7180;52.742;11.420;2023-02-04T03:20:34;102527.03;;;1.27;100.00
8585;BME280;7180;52.742;11.420;2023-02-04T03:22:59;102538.34;;;1.35;100.00
8585;BME280;7180;52.742;11.420;2023-02-04T03:25:25;102525.22;;;1.20;100.00
8585;BME280;7180;52.742;11.420;2023-02-04T03:27:52;102527.63;;;1.03;100.00
8585;BME280;7180;52.742;11.420;2023-02-04T03:30:19;102534.47;;;0.95;100.00
8585;BME280;7180;52.742;11.420;2023-02-04T03:32:44;102535.25;;;0.86;100.00
8585;BME280;7180;52.742;11.420;2023-02-04T03:35:09;102538.56;;;0.76;100.00
8585;BME280;7180;52.742;11.420;2023-02-04T03:37:34;102563.56;;;0.74;100.00
8585;BME280;7180;52.742;11.420;2023-02-04T03:40:00;102571.25;;;0.68;100.00
8585;BME280;7180;52.742;11.420;2023-02-04T03:42:25;102567.69;;;0.60;100.00
8585;BME280;7180;52.742;11.420;2023-02-04T03:44:50;102588.31;;;0.54;100.00
8585;BME280;7180;52.742;11.420;2023-02-04T03:47:15;102593.47;;;0.54;100.00
8585;BME280;7180;52.742;11.420;2023-02-04T03:49:41;102592.50;;;0.46;100.00
8585;BME280;7180;52.742;11.420;2023-02-04T03:52:06;102616.72;;;0.48;100.00
8585;BME280;7180;52.742;11.420;2023-02-04T03:54:31;102616.59;;;0.41;100.00
8585;BME280;7180;52.742;11.420;2023-02-04T03:56:56;102617.41;;;0.38;100.00
8585;BME280;7180;52.742;11.420;2023-02-04T03:59:22;102627.72;;;0.35;100.00
8585;BME280;7180;52.742;11.420;2023-02-04T04:01:47;102637.19;;;0.35;100.00
8585;BME280;7180;52.742;11.420;2023-02-04T04:04:12;102639.66;;;0.27;100.00
8585;BME280;7180;52.742;11.420;2023-02-04T04:06:38;102656.91;;;0.27;100.00
8585;BME280;7180;52.742;11.420;2023-02-04T04:09:03;102658.56;;;0.23;100.00
8585;BME280;7180;52.742;11.420;2023-02-04T04:11:29;102663.63;;;0.17;100.00
8585;BME280;7180;52.742;11.420;2023-02-04T04:13:54;102658.34;;;0.11;100.00
8585;BME280;7180;52.742;11.420;2023-02-04T04:16:19;102668.81;;;0.17;100.00
8585;BME280;7180;52.742;11.420;2023-02-04T04:18:45;102699.81;;;0.65;100.00
8585;BME280;7180;52.742;11.420;2023-02-04T04:21:11;102712.25;;;0.88;100.00
8585;BME280;7180;52.742;11.420;2023-02-04T04:23:36;102722.13;;;1.17;100.00
8585;BME280;7180;52.742;11.420;2023-02-04T04:26:03;102735.44;;;1.42;100.00
8585;BME280;7180;52.742;11.420;2023-02-04T04:28:28;102740.66;;;1.45;100.00
8585;BME280;7180;52.742;11.420;2023-02-04T04:30:53;102719.75;;;1.32;100.00
8585;BME280;7180;52.742;11.420;2023-02-04T04:33:19;102709.97;;;1.13;100.00
8585;BME280;7180;52.742;11.420;2023-02-04T04:35:44;102695.88;;;0.92;100.00
8585;BME280;7180;52.742;11.420;2023-02-04T04:38:09;102707.78;;;0.81;100.00
8585;BME280;7180;52.742;11.420;2023-02-04T04:40:35;102715.44;;;0.72;100.00
8585;BME280;7180;52.742;11.420;2023-02-04T04:43:00;102715.28;;;0.63;100.00
8585;BME280;7180;52.742;11.420;2023-02-04T04:45:25;102727.38;;;0.63;100.00
8585;BME280;7180;52.742;11.420;2023-02-04T04:47:50;102728.16;;;0.57;100.00
8585;BME280;7180;52.742;11.420;2023-02-04T04:50:16;102738.53;;;0.59;100.00
8585;BME280;7180;52.742;11.420;2023-02-04T04:52:41;102747.25;;;0.65;100.00
8585;BME280;7180;52.742;11.420;2023-02-04T04:55:07;102774.56;;;0.99;100.00
8585;BME280;7180;52.742;11.420;2023-02-04T04:57:32;102773.72;;;1.01;100.00
8585;BME280;7180;52.742;11.420;2023-02-04T04:59:57;102778.84;;;0.95;100.00
8585;BME280;7180;52.742;11.420;2023-02-04T05:02:23;102765.91;;;0.97;100.00
8585;BME280;7180;52.742;11.420;2023-02-04T05:04:48;102774.66;;;1.06;100.00
8585;BME280;7180;52.742;11.420;2023-02-04T05:07:13;102767.75;;;1.05;100.00
8585;BME280;7180;52.742;11.420;2023-02-04T05:09:38;102750.25;;;0.91;100.00
8585;BME280;7180;52.742;11.420;2023-02-04T05:12:04;102742.38;;;0.83;100.00
8585;BME280;7180;52.742;11.420;2023-02-04T05:14:29;102752.03;;;0.93;100.00
8585;BME280;7180;52.742;11.420;2023-02-04T05:16:55;102723.13;;;0.66;100.00
8585;BME280;7180;52.742;11.420;2023-02-04T05:19:20;102744.13;;;0.86;100.00
8585;BME280;7180;52.742;11.420;2023-02-04T05:21:45;102717.84;;;0.60;100.00
8585;BME280;7180;52.742;11.420;2023-02-04T05:24:10;102721.28;;;0.59;100.00
8585;BME280;7180;52.742;11.420;2023-02-04T05:26:36;102717.56;;;0.45;100.00
8585;BME280;7180;52.742;11.420;2023-02-04T05:29:01;102722.50;;;0.30;100.00
8585;BME280;7180;52.742;11.420;2023-02-04T05:31:27;102731.94;;;0.25;100.00
8585;BME280;7180;52.742;11.420;2023-02-04T05:33:52;102727.28;;;0.09;100.00
8585;BME280;7180;52.742;11.420;2023-02-04T05:36:18;102730.56;;;-0.01;100.00
8585;BME280;7180;52.742;11.420;2023-02-04T05:38:44;102725.28;;;-0.07;100.00
8585;BME280;7180;52.742;11.420;2023-02-04T05:41:09;102728.59;;;-0.14;100.00
8585;BME280;7180;52.742;11.420;2023-02-04T05:43:34;102737.09;;;-0.20;100.00
8585;BME280;7180;52.742;11.420;2023-02-04T05:46:00;102746.50;;;-0.23;100.00
8585;BME280;7180;52.742;11.420;2023-02-04T05:48:25;102752.47;;;-0.27;100.00
8585;BME280;7180;52.742;11.420;2023-02-04T05:50:51;102761.84;;;-0.32;100.00
8585;BME280;7180;52.742;11.420;2023-02-04T05:53:16;102764.38;;;-0.35;100.00
8585;BME280;7180;52.742;11.420;2023-02-04T05:55:41;102763.47;;;-0.37;100.00
8585;BME280;7180;52.742;11.420;2023-02-04T05:58:07;102777.19;;;-0.40;100.00
8585;BME280;7180;52.742;11.420;2023-02-04T06:00:32;102782.31;;;-0.41;100.00
8585;BME280;7180;52.742;11.420;2023-02-04T06:02:57;102790.22;;;-0.35;100.00
8585;BME280;7180;52.742;11.420;2023-02-04T06:05:22;102798.88;;;-0.33;100.00
8585;BME280;7180;52.742;11.420;2023-02-04T06:07:48;102818.06;;;-0.22;100.00
8585;BME280;7180;52.742;11.420;2023-02-04T06:10:14;102838.88;;;-0.16;100.00
8585;BME280;7180;52.742;11.420;2023-02-04T06:12:39;102851.16;;;-0.06;100.00
8585;BME280;7180;52.742;11.420;2023-02-04T06:15:05;102871.16;;;0.03;100.00
8585;BME280;7180;52.742;11.420;2023-02-04T06:17:30;102885.06;;;0.08;100.00
8585;BME280;7180;52.742;11.420;2023-02-04T06:19:55;102894.66;;;0.13;100.00
8585;BME280;7180;52.742;11.420;2023-02-04T06:22:21;102920.84;;;0.28;100.00
8585;BME280;7180;52.742;11.420;2023-02-04T06:24:48;102926.28;;;0.42;100.00
8585;BME280;7180;52.742;11.420;2023-02-04T06:27:13;102935.31;;;0.60;100.00
8585;BME280;7180;52.742;11.420;2023-02-04T06:29:42;102946.78;;;0.74;100.00
8585;BME280;7180;52.742;11.420;2023-02-04T06:32:07;102945.22;;;0.81;100.00
8585;BME280;7180;52.742;11.420;2023-02-04T06:34:33;102950.59;;;0.91;100.00
8585;BME280;7180;52.742;11.420;2023-02-04T06:36:58;102951.50;;;0.95;100.00
8585;BME280;7180;52.742;11.420;2023-02-04T06:39:23;102961.94;;;0.99;100.00
8585;BME280;7180;52.742;11.420;2023-02-04T06:41:48;102964.63;;;1.04;100.00
8585;BME280;7180;52.742;11.420;2023-02-04T06:44:14;102961.13;;;1.00;100.00
8585;BME280;7180;52.742;11.420;2023-02-04T06:46:39;102967.19;;;1.02;100.00
8585;BME280;7180;52.742;11.420;2023-02-04T06:49:04;102973.31;;;1.06;100.00
8585;BME280;7180;52.742;11.420;2023-02-04T06:51:29;102976.78;;;1.08;100.00
8585;BME280;7180;52.742;11.420;2023-02-04T06:53:55;102986.50;;;1.20;100.00
8585;BME280;7180;52.742;11.420;2023-02-04T06:56:20;102990.81;;;1.19;100.00
8585;BME280;7180;52.742;11.420;2023-02-04T06:58:45;102991.59;;;1.14;100.00
8585;BME280;7180;52.742;11.420;2023-02-04T07:01:10;102970.59;;;1.00;100.00
8585;BME280;7180;52.742;11.420;2023-02-04T07:03:36;102980.34;;;1.15;100.00
8585;BME280;7180;52.742;11.420;2023-02-04T07:06:01;102983.97;;;1.23;100.00
8585;BME280;7180;52.742;11.420;2023-02-04T07:08:26;102982.97;;;1.16;100.00
8585;BME280;7180;52.742;11.420;2023-02-04T07:10:52;102981.13;;;1.09;100.00
8585;BME280;7180;52.742;11.420;2023-02-04T07:13:17;102984.38;;;0.97;100.00
8585;BME280;7180;52.742;11.420;2023-02-04T07:15:42;102979.72;;;0.81;100.00
8585;BME280;7180;52.742;11.420;2023-02-04T07:18:07;102975.25;;;0.73;100.00
8585;BME280;7180;52.742;11.420;2023-02-04T07:20:33;102972.47;;;0.64;100.00
8585;BME280;7180;52.742;11.420;2023-02-04T07:22:58;102964.47;;;0.52;100.00
8585;BME280;7180;52.742;11.420;2023-02-04T07:25:23;102968.78;;;0.51;100.00
8585;BME280;7180;52.742;11.420;2023-02-04T07:27:48;102974.81;;;0.50;100.00
8585;BME280;7180;52.742;11.420;2023-02-04T07:30:14;102984.63;;;0.66;100.00
8585;BME280;7180;52.742;11.420;2023-02-04T07:32:39;102997.81;;;0.80;100.00
8585;BME280;7180;52.742;11.420;2023-02-04T07:35:05;103009.31;;;0.94;100.00
8585;BME280;7180;52.742;11.420;2023-02-04T07:37:30;103020.91;;;1.13;100.00
8585;BME280;7180;52.742;11.420;2023-02-04T07:39:55;103026.47;;;1.34;100.00
8585;BME280;7180;52.742;11.420;2023-02-04T07:42:20;103027.47;;;1.40;100.00
8585;BME280;7180;52.742;11.420;2023-02-04T07:44:46;103025.63;;;1.33;100.00
8585;BME280;7180;52.742;11.420;2023-02-04T07:47:11;103015.03;;;1.21;100.00
8585;BME280;7180;52.742;11.420;2023-02-04T07:49:37;103008.88;;;1.15;100.00
8585;BME280;7180;52.742;11.420;2023-02-04T07:52:02;103012.34;;;1.15;100.00
8585;BME280;7180;52.742;11.420;2023-02-04T07:54:27;103004.41;;;1.08;100.00
8585;BME280;7180;52.742;11.420;2023-02-04T07:56:53;103004.56;;;1.15;100.00
8585;BME280;7180;52.742;11.420;2023-02-04T07:59:18;102998.50;;;1.15;100.00
8585;BME280;7180;52.742;11.420;2023-02-04T08:01:43;103015.13;;;1.27;100.00
8585;BME280;7180;52.742;11.420;2023-02-04T08:04:09;103019.59;;;1.36;100.00
8585;BME280;7180;52.742;11.420;2023-02-04T08:06:34;103024.09;;;1.44;100.00
8585;BME280;7180;52.742;11.420;2023-02-04T08:08:59;103015.47;;;1.47;100.00
8585;BME280;7180;52.742;11.420;2023-02-04T08:11:24;103012.03;;;1.46;100.00
8585;BME280;7180;52.742;11.420;2023-02-04T08:13:51;103005.97;;;1.44;100.00
8585;BME280;7180;52.742;11.420;2023-02-04T08:16:16;103000.53;;;1.32;100.00
8585;BME280;7180;52.742;11.420;2023-02-04T08:18:41;102995.19;;;1.23;100.00
8585;BME280;7180;52.742;11.420;2023-02-04T08:21:06;103003.88;;;1.27;100.00
8585;BME280;7180;52.742;11.420;2023-02-04T08:23:32;103000.34;;;1.22;100.00
8585;BME280;7180;52.742;11.420;2023-02-04T08:25:57;103004.53;;;1.14;100.00
8585;BME280;7180;52.742;11.420;2023-02-04T08:28:24;103007.91;;;1.10;100.00
8585;BME280;7180;52.742;11.420;2023-02-04T08:30:49;103014.00;;;1.12;100.00
8585;BME280;7180;52.742;11.420;2023-02-04T08:33:14;103030.38;;;1.11;100.00
8585;BME280;7180;52.742;11.420;2023-02-04T08:35:40;103020.84;;;1.08;100.00
8585;BME280;7180;52.742;11.420;2023-02-04T08:38:05;103029.47;;;1.08;100.00
8585;BME280;7180;52.742;11.420;2023-02-04T08:40:30;103028.66;;;1.10;100.00
8585;BME280;7180;52.742;11.420;2023-02-04T08:42:55;103038.22;;;1.14;100.00
8585;BME280;7180;52.742;11.420;2023-02-04T08:45:21;103043.47;;;1.17;100.00
8585;BME280;7180;52.742;11.420;2023-02-04T08:47:46;103050.38;;;1.18;100.00
8585;BME280;7180;52.742;11.420;2023-02-04T08:50:11;103057.34;;;1.20;100.00
8585;BME280;7180;52.742;11.420;2023-02-04T08:52:37;103059.97;;;1.22;100.00
8585;BME280;7180;52.742;11.420;2023-02-04T08:55:03;103074.72;;;1.26;100.00
8585;BME280;7180;52.742;11.420;2023-02-04T08:57:28;103093.94;;;1.37;100.00
8585;BME280;7180;52.742;11.420;2023-02-04T08:59:54;103084.41;;;1.36;100.00
8585;BME280;7180;52.742;11.420;2023-02-04T09:02:19;103089.75;;;1.43;100.00
8585;BME280;7180;52.742;11.420;2023-02-04T09:04:44;103096.00;;;1.54;100.00
8585;BME280;7180;52.742;11.420;2023-02-04T09:07:09;103091.00;;;1.65;100.00
8585;BME280;7180;52.742;11.420;2023-02-04T09:09:35;103105.97;;;1.81;100.00
8585;BME280;7180;52.742;11.420;2023-02-04T09:12:00;103115.69;;;1.91;100.00
8585;BME280;7180;52.742;11.420;2023-02-04T09:14:27;103119.34;;;2.02;100.00
8585;BME280;7180;52.742;11.420;2023-02-04T09:16:52;103103.94;;;2.14;100.00
8585;BME280;7180;52.742;11.420;2023-02-04T09:19:18;103103.13;;;2.17;100.00
8585;BME280;7180;52.742;11.420;2023-02-04T09:21:49;103090.31;;;2.27;100.00
8585;BME280;7180;52.742;11.420;2023-02-04T09:24:14;103059.06;;;2.21;100.00
8585;BME280;7180;52.742;11.420;2023-02-04T09:26:39;103034.00;;;2.22;100.00
8585;BME280;7180;52.742;11.420;2023-02-04T09:29:04;103008.94;;;2.25;100.00
8585;BME280;7180;52.742;11.420;2023-02-04T09:31:30;103006.59;;;2.42;100.00
8585;BME280;7180;52.742;11.420;2023-02-04T09:33:55;102972.72;;;2.34;100.00
8585;BME280;7180;52.742;11.420;2023-02-04T09:36:20;102948.56;;;2.41;100.00
8585;BME280;7180;52.742;11.420;2023-02-04T09:38:45;102926.03;;;2.40;100.00
8585;BME280;7180;52.742;11.420;2023-02-04T09:41:11;102901.91;;;2.47;100.00
8585;BME280;7180;52.742;11.420;2023-02-04T09:43:39;102873.53;;;2.65;100.00
8585;BME280;7180;52.742;11.420;2023-02-04T09:46:08;102844.22;;;2.78;100.00
8585;BME280;7180;52.742;11.420;2023-02-04T09:48:39;102778.34;;;2.72;100.00
8585;BME280;7180;52.742;11.420;2023-02-04T09:51:06;102756.00;;;2.98;100.00
8585;BME280;7180;52.742;11.420;2023-02-04T09:53:33;102683.13;;;2.78;100.00
8585;BME280;7180;52.742;11.420;2023-02-04T09:55:59;102640.72;;;2.79;100.00
8585;BME280;7180;52.742;11.420;2023-02-04T09:58:29;102615.63;;;2.89;100.00
8585;BME280;7180;52.742;11.420;2023-02-04T10:00:59;102580.19;;;2.98;100.00
8585;BME280;7180;52.742;11.420;2023-02-04T10:03:25;102531.69;;;3.02;100.00
8585;BME280;7180;52.742;11.420;2023-02-04T10:05:51;102483.19;;;3.10;99.89
8585;BME280;7180;52.742;11.420;2023-02-04T10:08:25;102431.22;;;3.08;99.07
8585;BME280;7180;52.742;11.420;2023-02-04T10:10:51;102362.75;;;3.00;98.06
8585;BME280;7180;52.742;11.420;2023-02-04T10:13:19;102309.06;;;2.96;97.69
8585;BME280;7180;52.742;11.420;2023-02-04T10:15:47;102297.78;;;3.12;96.66
8585;BME280;7180;52.742;11.420;2023-02-04T10:18:23;102275.25;;;3.24;96.34
8585;BME280;7180;52.742;11.420;2023-02-04T10:20:53;102211.09;;;3.35;95.25
8585;BME280;7180;52.742;11.420;2023-02-04T10:23:19;102156.50;;;3.33;94.87
8585;BME280;7180;52.742;11.420;2023-02-04T10:25:45;102099.38;;;3.15;93.96
8585;BME280;7180;52.742;11.420;2023-02-04T10:28:10;102102.78;;;3.31;93.98
8585;BME280;7180;52.742;11.420;2023-02-04T10:30:41;102058.59;;;3.28;93.13
8585;BME280;7180;52.742;11.420;2023-02-04T10:33:20;102078.47;;;3.39;93.11
8585;BME280;7180;52.742;11.420;2023-02-04T10:35:48;101937.16;;;3.43;91.74
8585;BME280;7180;52.742;11.420;2023-02-04T10:38:14;101856.56;;;3.46;91.12
8585;BME280;7180;52.742;11.420;2023-02-04T10:40:39;101806.16;;;3.56;90.14
8585;BME280;7180;52.742;11.420;2023-02-04T10:43:10;101820.75;;;3.71;89.64
8585;BME280;7180;52.742;11.420;2023-02-04T10:45:37;101677.13;;;3.48;88.71
8585;BME280;7180;52.742;11.420;2023-02-04T10:48:03;101635.59;;;3.42;88.40
8585;BME280;7180;52.742;11.420;2023-02-04T10:50:28;101712.28;;;3.76;88.39
8585;BME280;7180;52.742;11.420;2023-02-04T10:52:56;101720.69;;;3.96;87.89
8585;BME280;7180;52.742;11.420;2023-02-04T10:55:42;101673.06;;;3.91;88.01
8585;BME280;7180;52.742;11.420;2023-02-04T10:58:11;101496.16;;;3.91;86.52
8585;BME280;7180;52.742;11.420;2023-02-04T11:00:39;101338.53;;;3.81;85.54
8585;BME280;7180;52.742;11.420;2023-02-04T11:03:18;101275.69;;;3.56;85.37
8585;BME280;7180;52.742;11.420;2023-02-04T11:05:44;101394.81;;;3.83;85.46
8585;BME280;7180;52.742;11.420;2023-02-04T11:08:23;101292.69;;;3.75;84.46
8585;BME280;7180;52.742;11.420;2023-02-04T11:10:58;101221.34;;;3.85;84.08
8585;BME280;7180;52.742;11.420;2023-02-04T11:13:37;101180.25;;;3.61;84.28
8585;BME280;7180;52.742;11.420;2023-02-04T11:16:32;101328.28;;;3.72;84.32
8585;BME280;7180;52.742;11.420;2023-02-04T11:19:10;101316.22;;;3.68;84.52
8585;BME280;7180;52.742;11.420;2023-02-04T11:24:16;101459.56;;;4.00;84.60
8585;BME280;7180;52.742;11.420;2023-02-04T11:26:52;101434.50;;;3.94;84.65
8585;BME280;7180;52.742;11.420;2023-02-04T11:29:30;101433.13;;;4.21;84.30
8585;BME280;7180;52.742;11.420;2023-02-04T11:32:03;101367.41;;;4.11;84.16
8585;BME280;7180;52.742;11.420;2023-02-04T11:34:30;101393.41;;;4.13;83.87
8585;BME280;7180;52.742;11.420;2023-02-04T11:39:36;101408.91;;;4.60;83.23
8585;BME280;7180;52.742;11.420;2023-02-04T11:42:04;101258.00;;;4.54;82.63
8585;BME280;7180;52.742;11.420;2023-02-04T11:44:30;101220.22;;;4.72;81.93
8585;BME280;7180;52.742;11.420;2023-02-04T11:47:06;101176.19;;;4.96;81.16
8585;BME280;7180;52.742;11.420;2023-02-04T11:49:35;100951.97;;;4.99;80.08
8585;BME280;7180;52.742;11.420;2023-02-04T11:52:12;100790.19;;;4.79;79.40
8585;BME280;7180;52.742;11.420;2023-02-04T11:54:38;100793.72;;;4.78;79.65
8585;BME280;7180;52.742;11.420;2023-02-04T11:57:04;100660.94;;;4.23;79.33
8585;BME280;7180;52.742;11.420;2023-02-04T11:59:30;100723.41;;;4.23;79.61
8585;BME280;7180;52.742;11.420;2023-02-04T12:02:04;100858.31;;;4.38;79.66
8585;BME280;7180;52.742;11.420;2023-02-04T12:04:29;100873.81;;;4.41;80.15
8585;BME280;7180;52.742;11.420;2023-02-04T12:07:02;101003.16;;;4.71;80.33
8585;BME280;7180;52.742;11.420;2023-02-04T12:09:29;100865.25;;;4.67;79.36
8585;BME280;7180;52.742;11.420;2023-02-04T12:11:59;100887.16;;;4.89;79.41
8585;BME280;7180;52.742;11.420;2023-02-04T12:16:57;100607.78;;;4.81;77.99
8585;BME280;7180;52.742;11.420;2023-02-04T12:19:23;100687.25;;;5.18;77.63
8585;BME280;7180;52.742;11.420;2023-02-04T12:21:48;100561.16;;;4.73;78.13
8585;BME280;7180;52.742;11.420;2023-02-04T12:24:13;100695.91;;;4.68;78.36
8585;BME280;7180;52.742;11.420;2023-02-04T12:26:39;100658.84;;;4.34;78.94
8585;BME280;7180;52.742;11.420;2023-02-04T12:29:04;100882.91;;;4.57;79.63
8585;BME280;7180;52.742;11.420;2023-02-04T12:31:30;100794.03;;;4.40;79.49
8585;BME280;7180;52.742;11.420;2023-02-04T12:33:56;100739.31;;;4.42;78.85
8585;BME280;7180;52.742;11.420;2023-02-04T12:36:21;100664.69;;;4.41;78.58
8585;BME280;7180;52.742;11.420;2023-02-04T12:38:46;100600.38;;;4.18;78.32
8585;BME280;7180;52.742;11.420;2023-02-04T12:41:12;100704.84;;;4.06;79.19
8585;BME280;7180;52.742;11.420;2023-02-04T12:43:37;100938.19;;;4.36;79.50
8585;BME280;7180;52.742;11.420;2023-02-04T12:46:03;100845.47;;;4.32;79.45
8585;BME280;7180;52.742;11.420;2023-02-04T12:48:28;100877.66;;;4.28;79.87
8585;BME280;7180;52.742;11.420;2023-02-04T12:50:53;100892.47;;;4.26;80.00
8585;BME280;7180;52.742;11.420;2023-02-04T12:53:19;100838.53;;;4.02;79.77
8585;BME280;7180;52.742;11.420;2023-02-04T12:55:44;100831.84;;;3.92;79.72
8585;BME280;7180;52.742;11.420;2023-02-04T12:58:09;100756.91;;;3.75;79.62
8585;BME280;7180;52.742;11.420;2023-02-04T13:00:35;100749.56;;;3.59;79.93
8585;BME280;7180;52.742;11.420;2023-02-04T13:03:00;100782.00;;;3.46;80.55
8585;BME280;7180;52.742;11.420;2023-02-04T13:05:26;100835.19;;;3.33;80.92